Time;durP1;ratioP1;P1;durP2;ratioP2;P2;SDS_P1;SDS_P2;PMS_P1;PMS_P2;Temp;Humidity;BMP_temperature;BMP_pressure;BME280_temperature;BME280_humidity;BME280_pressure;Samples;Min_cycle;Max_cycle;Signal;HPM_P1;HPM_P2
2024/01/13 00:00:30;;;;;;;1999.90;999.90;;;-0.30;99.90;;;;;;5071224;28;20399;-76
2024/01/13 00:02:56;;;;;;;1999.90;999.90;;;-0.30;99.90;;;;;;5073385;28;20029;-75
2024/01/13 00:05:22;;;;;;;1999.90;999.90;;;-0.40;99.90;;;;;;5072982;28;20053;-76
2024/01/13 00:07:47;;;;;;;1999.90;999.90;;;-0.40;99.90;;;;;;5072666;28;20029;-75
2024/01/13 00:10:13;;;;;;;1999.90;999.90;;;-0.40;99.90;;;;;;5075880;28;20019;-76
2024/01/13 00:12:38;;;;;;;1999.90;999.90;;;-0.40;99.90;;;;;;5064261;28;20390;-76
2024/01/13 00:15:05;;;;;;;1999.90;999.90;;;-0.40;99.90;;;;;;5073055;28;20023;-76
2024/01/13 00:17:30;;;;;;;1999.90;999.90;;;-0.40;99.90;;;;;;5055112;28;20074;-74
2024/01/13 00:19:56;;;;;;;1999.90;999.90;;;-0.40;99.90;;;;;;5072608;28;20746;-76
2024/01/13 00:22:21;;;;;;;1999.90;999.90;;;-0.40;99.90;;;;;;5072639;28;20099;-76
2024/01/13 00:24:47;;;;;;;1999.90;999.90;;;-0.40;99.90;;;;;;5072744;28;20025;-76
2024/01/13 00:27:13;;;;;;;1999.90;999.90;;;-0.30;99.90;;;;;;5072826;28;20464;-76
2024/01/13 00:29:39;;;;;;;1999.90;999.90;;;-0.40;99.90;;;;;;5072897;28;20021;-76
2024/01/13 00:32:05;;;;;;;1999.90;999.90;;;-0.40;99.90;;;;;;5072581;28;20025;-76
2024/01/13 00:34:30;;;;;;;1999.90;999.90;;;-0.40;99.90;;;;;;5072573;28;20434;-76
2024/01/13 00:36:56;;;;;;;1999.90;999.90;;;-0.40;99.90;;;;;;5073167;28;20111;-76
2024/01/13 00:39:21;;;;;;;1999.90;999.90;;;-0.40;99.90;;;;;;5072871;28;20025;-76
2024/01/13 00:41:47;;;;;;;1999.90;999.90;;;-0.30;99.90;;;;;;5072972;28;20032;-76
2024/01/13 00:44:12;;;;;;;1999.90;999.90;;;-0.30;99.90;;;;;;5071980;28;20028;-76
2024/01/13 00:46:38;;;;;;;1999.90;999.90;;;-0.30;99.90;;;;;;5072377;28;20029;-76
2024/01/13 00:49:04;;;;;;;1999.90;999.90;;;-0.30;99.90;;;;;;5072568;28;20016;-76
2024/01/13 00:51:31;;;;;;;1999.90;999.90;;;-0.20;99.90;;;;;;5072674;28;20456;-76
2024/01/13 00:53:57;;;;;;;1999.90;999.90;;;-0.30;99.90;;;;;;5072713;28;20059;-76
2024/01/13 00:56:23;;;;;;;1999.90;999.90;;;-0.30;99.90;;;;;;5075802;28;20064;-76
2024/01/13 00:58:48;;;;;;;1999.90;999.90;;;-0.20;99.90;;;;;;5075494;28;20067;-76
2024/01/13 01:01:14;;;;;;;1999.90;999.90;;;-0.20;99.90;;;;;;5057970;28;20028;-74
2024/01/13 01:03:40;;;;;;;1999.90;999.90;;;-0.30;99.90;;;;;;5076596;28;20041;-76
2024/01/13 01:06:06;;;;;;;1999.90;999.90;;;-0.30;99.90;;;;;;5076336;28;20406;-76
2024/01/13 01:08:31;;;;;;;1999.90;999.90;;;-0.20;99.90;;;;;;5076199;28;20096;-76
2024/01/13 01:10:57;;;;;;;1999.90;999.90;;;-0.20;99.90;;;;;;5080349;28;20064;-74
2024/01/13 01:13:23;;;;;;;1999.90;999.90;;;-0.30;99.90;;;;;;5066322;28;20487;-76
2024/01/13 01:15:48;;;;;;;1999.90;999.90;;;-0.30;99.90;;;;;;5076121;28;20075;-76
2024/01/13 01:18:14;;;;;;;1999.90;999.90;;;-0.30;99.90;;;;;;5076069;28;20078;-76
2024/01/13 01:20:39;;;;;;;1999.90;999.90;;;-0.30;99.90;;;;;;5075747;28;20035;-76
2024/01/13 01:23:05;;;;;;;1999.90;999.90;;;-0.30;99.90;;;;;;5075885;28;20024;-75
2024/01/13 01:25:31;;;;;;;1999.90;999.90;;;-0.30;99.90;;;;;;5075696;28;20017;-76
2024/01/13 01:27:56;;;;;;;1999.90;999.90;;;-0.40;99.90;;;;;;5075578;28;20116;-74
2024/01/13 01:30:22;;;;;;;1999.90;999.90;;;-0.30;99.90;;;;;;5075787;28;20028;-76
2024/01/13 01:32:49;;;;;;;1999.90;999.90;;;-0.40;99.90;;;;;;5075527;28;20023;-75
2024/01/13 01:35:15;;;;;;;1999.90;999.90;;;-0.40;99.90;;;;;;5075845;28;20020;-74
2024/01/13 01:37:40;;;;;;;1999.90;999.90;;;-0.40;99.90;;;;;;5075734;28;20037;-74
2024/01/13 01:40:09;;;;;;;1999.90;999.90;;;-0.40;99.90;;;;;;5075589;28;20075;-75
2024/01/13 01:42:34;;;;;;;1999.90;999.90;;;-0.40;99.90;;;;;;5075991;28;20024;-74
2024/01/13 01:45:00;;;;;;;1999.90;999.90;;;-0.40;99.90;;;;;;5075508;28;20032;-76
2024/01/13 01:47:28;;;;;;;1999.90;999.90;;;-0.50;99.90;;;;;;5075511;28;20490;-74
2024/01/13 01:49:54;;;;;;;1999.90;999.90;;;-0.50;99.90;;;;;;5057618;28;20510;-74
2024/01/13 01:52:20;;;;;;;1999.90;999.90;;;-0.50;99.90;;;;;;5075449;28;20016;-74
2024/01/13 01:54:46;;;;;;;1999.90;999.90;;;-0.50;99.90;;;;;;5075663;28;20028;-74
2024/01/13 01:57:15;;;;;;;1999.90;999.90;;;-0.50;99.90;;;;;;5075412;28;20099;-74
2024/01/13 01:59:41;;;;;;;1999.90;999.90;;;-0.50;99.90;;;;;;5075109;28;20159;-74
2024/01/13 02:02:08;;;;;;;1999.90;999.90;;;-0.60;99.90;;;;;;5075082;28;20127;-76
2024/01/13 02:04:33;;;;;;;1999.90;999.90;;;-0.60;99.90;;;;;;5075317;28;20063;-76
2024/01/13 02:07:00;;;;;;;1999.90;999.90;;;-0.50;99.90;;;;;;5074692;28;20032;-76
2024/01/13 02:09:26;;;;;;;1999.90;999.90;;;-0.60;99.90;;;;;;5074970;28;20395;-74
2024/01/13 02:11:52;;;;;;;1999.90;999.90;;;-0.60;99.90;;;;;;5086641;28;20025;-75
2024/01/13 02:14:18;;;;;;;1999.90;999.90;;;-0.60;99.90;;;;;;5074608;28;20020;-74
2024/01/13 02:16:44;;;;;;;1999.90;999.90;;;-0.60;99.90;;;;;;5074992;28;20553;-74
2024/01/13 02:19:09;;;;;;;1999.90;999.90;;;-0.70;99.90;;;;;;5074923;28;20032;-74
2024/01/13 02:21:36;;;;;;;1999.90;999.90;;;-0.70;99.90;;;;;;5074932;28;20025;-75
2024/01/13 02:24:01;;;;;;;1999.90;999.90;;;-0.70;99.90;;;;;;5074765;28;20039;-74
2024/01/13 02:26:29;;;;;;;1999.90;999.90;;;-0.60;99.90;;;;;;5056433;28;20012;-74
2024/01/13 02:28:55;;;;;;;1999.90;999.90;;;-0.70;99.90;;;;;;5074777;28;20021;-74
2024/01/13 02:31:20;;;;;;;1999.90;999.90;;;-0.70;99.90;;;;;;5074835;28;20074;-74
2024/01/13 02:33:46;;;;;;;1999.90;999.90;;;-0.70;99.90;;;;;;5074832;28;20031;-74
2024/01/13 02:36:11;;;;;;;1999.90;999.90;;;-0.70;99.90;;;;;;5074397;28;20028;-74
2024/01/13 02:38:37;;;;;;;1999.90;999.90;;;-0.70;99.90;;;;;;5074662;28;20025;-74
2024/01/13 02:41:03;;;;;;;1999.90;999.90;;;-0.70;99.90;;;;;;5075017;28;20024;-74
2024/01/13 02:43:28;;;;;;;1999.90;999.90;;;-0.70;99.90;;;;;;5074202;28;20025;-74
2024/01/13 02:45:54;;;;;;;1999.90;999.90;;;-0.70;99.90;;;;;;5074342;28;20024;-75
2024/01/13 02:48:20;;;;;;;1999.90;999.90;;;-0.70;99.90;;;;;;5073718;28;20024;-74
2024/01/13 02:50:57;;;;;;;1999.90;999.90;;;-0.70;99.90;;;;;;5074002;28;20107;-76
2024/01/13 02:53:23;;;;;;;1999.90;999.90;;;-0.70;99.90;;;;;;5074652;28;20458;-74
2024/01/13 02:55:49;;;;;;;1999.90;999.90;;;-0.70;99.90;;;;;;5074455;28;20099;-74
2024/01/13 02:58:14;;;;;;;1999.90;999.90;;;-0.70;99.90;;;;;;5056321;28;20024;-76
2024/01/13 03:00:40;;;;;;;1999.90;999.90;;;-0.70;99.90;;;;;;5073634;28;20108;-76
2024/01/13 03:03:06;;;;;;;1999.90;999.90;;;-0.60;99.90;;;;;;5074676;28;20386;-76
2024/01/13 03:05:31;;;;;;;1999.90;999.90;;;-0.60;99.90;;;;;;5056152;28;20487;-75
2024/01/13 03:07:57;;;;;;;1999.90;999.90;;;-0.50;99.90;;;;;;5073855;28;20033;-74
2024/01/13 03:10:22;;;;;;;1999.90;999.90;;;-0.60;99.90;;;;;;5059563;28;20074;-74
2024/01/13 03:12:48;;;;;;;1999.90;999.90;;;-0.60;99.90;;;;;;5082319;28;20028;-74
2024/01/13 03:15:14;;;;;;;1999.90;999.90;;;-0.60;99.90;;;;;;5073027;28;20021;-74
2024/01/13 03:17:39;;;;;;;1999.90;999.90;;;-0.60;99.90;;;;;;5055712;28;20040;-74
2024/01/13 03:20:06;;;;;;;1999.90;999.90;;;-0.60;99.90;;;;;;5074027;28;20082;-74
2024/01/13 03:22:31;;;;;;;1999.90;999.90;;;-0.60;99.90;;;;;;5073480;28;20024;-76
2024/01/13 03:24:57;;;;;;;1999.90;999.90;;;-0.60;99.90;;;;;;5073644;28;20506;-75
2024/01/13 03:27:23;;;;;;;1999.90;999.90;;;-0.60;99.90;;;;;;5073512;28;20047;-74
2024/01/13 03:29:48;;;;;;;1999.90;999.90;;;-0.60;99.90;;;;;;5073955;28;20023;-76
2024/01/13 03:32:14;;;;;;;1999.90;999.90;;;-0.60;99.90;;;;;;5073390;28;20025;-74
2024/01/13 03:34:39;;;;;;;1999.90;999.90;;;-0.60;99.90;;;;;;5073662;28;20016;-74
2024/01/13 03:37:06;;;;;;;1999.90;999.90;;;-0.60;99.90;;;;;;5073217;28;20063;-74
2024/01/13 03:39:31;;;;;;;1999.90;999.90;;;-0.70;99.90;;;;;;5055522;28;20025;-76
2024/01/13 03:41:57;;;;;;;1999.90;999.90;;;-0.70;99.90;;;;;;5073322;28;20028;-76
2024/01/13 03:44:22;;;;;;;1999.90;999.90;;;-0.70;99.90;;;;;;5055301;28;20032;-76
2024/01/13 03:46:48;;;;;;;1999.90;999.90;;;-0.70;99.90;;;;;;5073406;28;20384;-76
2024/01/13 03:49:14;;;;;;;1999.90;999.90;;;-0.70;99.90;;;;;;5073336;28;20550;-76
2024/01/13 03:51:39;;;;;;;1999.90;999.90;;;-0.70;99.90;;;;;;5073168;28;20391;-74
2024/01/13 03:54:05;;;;;;;1999.90;999.90;;;-0.70;99.90;;;;;;5073696;28;20128;-76
2024/01/13 03:56:31;;;;;;;1999.90;999.90;;;-0.80;99.90;;;;;;5055109;28;20066;-76
2024/01/13 03:58:56;;;;;;;1999.90;999.90;;;-0.80;99.90;;;;;;5054195;28;20178;-75
2024/01/13 04:01:22;;;;;;;1999.90;999.90;;;-0.80;99.90;;;;;;5072669;28;20035;-74
2024/01/13 04:03:48;;;;;;;1999.90;999.90;;;-0.80;99.90;;;;;;5072834;28;20063;-76
2024/01/13 04:06:13;;;;;;;1999.90;999.90;;;-0.90;99.90;;;;;;5073299;28;20028;-76
2024/01/13 04:08:39;;;;;;;1999.90;999.90;;;-0.90;99.90;;;;;;5072765;28;20028;-76
2024/01/13 04:11:07;;;;;;;1999.90;999.90;;;-0.90;99.90;;;;;;5078131;28;20078;-76
2024/01/13 04:13:33;;;;;;;1999.90;999.90;;;-0.90;99.90;;;;;;5079899;28;20104;-74
2024/01/13 04:15:59;;;;;;;1999.90;999.90;;;-0.90;99.90;;;;;;5072962;28;20074;-75
2024/01/13 04:18:25;;;;;;;1999.90;999.90;;;-0.90;99.90;;;;;;5072780;28;20399;-76
2024/01/13 04:20:50;;;;;;;1999.90;999.90;;;-0.90;99.90;;;;;;5073047;28;20021;-76
2024/01/13 04:23:16;;;;;;;1999.90;999.90;;;-0.80;99.90;;;;;;5072989;28;20475;-76
2024/01/13 04:25:42;;;;;;;1999.90;999.90;;;-0.90;99.90;;;;;;5072755;28;20028;-74
2024/01/13 04:28:07;;;;;;;1999.90;999.90;;;-1.00;99.90;;;;;;5072543;28;20028;-76
2024/01/13 04:30:35;;;;;;;1999.90;999.90;;;-1.00;99.90;;;;;;5054365;28;20024;-74
2024/01/13 04:33:01;;;;;;;1999.90;999.90;;;-0.90;99.90;;;;;;5072769;28;20025;-76
2024/01/13 04:35:27;;;;;;;1999.90;999.90;;;-1.00;99.90;;;;;;5072795;28;20387;-76
2024/01/13 04:37:54;;;;;;;1999.90;999.90;;;-1.00;99.90;;;;;;5072863;28;20032;-75
2024/01/13 04:40:19;;;;;;;1999.90;999.90;;;-1.00;99.90;;;;;;5072425;28;20027;-76
2024/01/13 04:42:45;;;;;;;1999.90;999.90;;;-1.00;99.90;;;;;;5072684;28;20032;-74
2024/01/13 04:45:11;;;;;;;1999.90;999.90;;;-1.00;99.90;;;;;;5072844;28;20029;-76
2024/01/13 04:47:36;;;;;;;1999.90;999.90;;;-1.00;99.90;;;;;;5072669;28;20407;-76
2024/01/13 04:50:02;;;;;;;1999.90;999.90;;;-1.00;99.90;;;;;;5072987;28;20394;-76
2024/01/13 04:52:28;;;;;;;1999.90;999.90;;;-1.00;99.90;;;;;;5072387;28;20103;-74
2024/01/13 04:54:54;;;;;;;1999.90;999.90;;;-1.00;99.90;;;;;;5072534;28;20096;-76
2024/01/13 04:57:20;;;;;;;1999.90;999.90;;;-0.90;99.90;;;;;;5072572;28;20033;-76
2024/01/13 04:59:46;;;;;;;1999.90;999.90;;;-1.00;99.90;;;;;;5072355;28;20052;-76
2024/01/13 05:02:12;;;;;;;1999.90;999.90;;;-1.00;99.90;;;;;;5072571;28;20490;-75
2024/01/13 05:04:39;;;;;;;1999.90;999.90;;;-1.00;99.90;;;;;;5072112;28;20131;-76
2024/01/13 05:07:05;;;;;;;1999.90;999.90;;;-1.00;99.90;;;;;;5055197;28;20104;-76
2024/01/13 05:09:30;;;;;;;1999.90;999.90;;;-1.10;99.90;;;;;;5072518;28;20518;-76
2024/01/13 05:11:56;;;;;;;1999.90;999.90;;;-1.10;99.90;;;;;;5084223;28;20082;-76
2024/01/13 05:14:22;;;;;;;1999.90;999.90;;;-1.10;99.90;;;;;;5072615;28;20035;-76
2024/01/13 05:16:47;;;;;;;1999.90;999.90;;;-1.10;99.90;;;;;;5071023;28;20032;-76
2024/01/13 05:19:13;;;;;;;1999.90;999.90;;;-1.10;99.90;;;;;;5076599;28;20025;-74
2024/01/13 05:21:39;;;;;;;1999.90;999.90;;;-1.20;99.90;;;;;;5080076;28;20027;-76
2024/01/13 05:24:04;;;;;;;1999.90;999.90;;;-1.20;99.90;;;;;;5072272;28;20381;-76
2024/01/13 05:26:30;;;;;;;1999.90;999.90;;;-1.20;99.90;;;;;;5071659;28;20021;-76
2024/01/13 05:28:56;;;;;;;1999.90;999.90;;;-1.20;99.90;;;;;;5071589;28;20024;-74
2024/01/13 05:31:22;;;;;;;1999.90;999.90;;;-1.20;99.90;;;;;;5072262;28;20023;-74
2024/01/13 05:33:47;;;;;;;1999.90;999.90;;;-1.20;99.90;;;;;;5072155;28;20040;-76
2024/01/13 05:36:13;;;;;;;1999.90;999.90;;;-1.30;99.90;;;;;;5054252;28;20379;-76
2024/01/13 05:38:39;;;;;;;1999.90;999.90;;;-1.30;99.90;;;;;;5072417;28;20028;-76
2024/01/13 05:41:04;;;;;;;1999.90;999.90;;;-1.30;99.90;;;;;;5072595;28;20391;-74
2024/01/13 05:43:30;;;;;;;1999.90;999.90;;;-1.30;99.90;;;;;;5075299;28;20345;-74
2024/01/13 05:45:55;;;;;;;1999.90;999.90;;;-1.30;99.90;;;;;;5075640;28;20051;-74
2024/01/13 05:48:21;;;;;;;1999.90;999.90;;;-1.40;99.90;;;;;;5075542;28;20064;-74
2024/01/13 05:50:47;;;;;;;1999.90;999.90;;;-1.40;99.90;;;;;;5076060;28;20036;-76
2024/01/13 05:53:12;;;;;;;1999.90;999.90;;;-1.40;99.90;;;;;;5057711;28;20455;-76
2024/01/13 05:55:38;;;;;;;1999.90;999.90;;;-1.40;99.90;;;;;;5075573;28;20039;-74
2024/01/13 05:58:03;;;;;;;1999.90;999.90;;;-1.40;99.90;;;;;;5075721;28;20503;-75
2024/01/13 06:00:29;;;;;;;1999.90;999.90;;;-1.50;99.90;;;;;;5075067;28;20396;-76
2024/01/13 06:02:56;;;;;;;1999.90;999.90;;;-1.40;99.90;;;;;;5076087;28;20497;-76
2024/01/13 06:05:22;;;;;;;1999.90;999.90;;;-1.40;99.90;;;;;;5075265;28;20522;-76
2024/01/13 06:07:48;;;;;;;1999.90;999.90;;;-1.40;99.90;;;;;;5075414;28;20025;-76
2024/01/13 06:10:15;;;;;;;1999.90;999.90;;;-1.40;99.90;;;;;;5076288;28;20028;-76
2024/01/13 06:12:40;;;;;;;1999.90;999.90;;;-1.50;99.90;;;;;;5084469;28;20376;-74
2024/01/13 06:15:07;;;;;;;1999.90;999.90;;;-1.50;99.90;;;;;;5075261;28;20066;-76
2024/01/13 06:17:33;;;;;;;1999.90;999.90;;;-1.40;99.90;;;;;;5075231;28;20032;-76
2024/01/13 06:19:58;;;;;;;1999.90;999.90;;;-1.40;99.90;;;;;;5074969;28;20028;-75
2024/01/13 06:22:24;;;;;;;1999.90;999.90;;;-1.50;99.90;;;;;;5074923;28;20476;-76
2024/01/13 06:24:49;;;;;;;1999.90;999.90;;;-1.50;99.90;;;;;;5078188;28;20031;-75
2024/01/13 06:27:15;;;;;;;1999.90;999.90;;;-1.50;99.90;;;;;;5090486;28;20031;-75
2024/01/13 06:29:40;;;;;;;1999.90;999.90;;;-1.50;99.90;;;;;;5095106;28;20051;-76
2024/01/13 06:32:06;;;;;;;1999.90;999.90;;;-1.50;99.90;;;;;;5069654;28;20035;-76
2024/01/13 06:34:32;;;;;;;1999.90;999.90;;;-1.50;99.90;;;;;;5074752;28;20017;-74
2024/01/13 06:36:57;;;;;;;1999.90;999.90;;;-1.50;99.90;;;;;;5074830;28;20498;-76
2024/01/13 06:39:23;;;;;;;1999.90;999.90;;;-1.50;99.90;;;;;;5074747;28;20020;-74
2024/01/13 06:41:49;;;;;;;1999.90;999.90;;;-1.60;99.90;;;;;;5074643;28;20107;-76
2024/01/13 06:44:14;;;;;;;1999.90;999.90;;;-1.60;99.90;;;;;;5074374;28;20126;-76
2024/01/13 06:46:40;;;;;;;1999.90;999.90;;;-1.60;99.90;;;;;;5074594;28;20034;-76
2024/01/13 06:49:06;;;;;;;1999.90;999.90;;;-1.60;99.90;;;;;;5074578;28;20027;-76
2024/01/13 06:51:32;;;;;;;1999.90;999.90;;;-1.60;99.90;;;;;;5074847;28;20027;-74
2024/01/13 06:53:58;;;;;;;1999.90;999.90;;;-1.60;99.90;;;;;;5074143;28;20025;-76
2024/01/13 06:56:23;;;;;;;1999.90;999.90;;;-1.60;99.90;;;;;;5074296;28;20055;-76
2024/01/13 06:58:49;;;;;;;1999.90;999.90;;;-1.60;99.90;;;;;;5073895;28;20020;-76
2024/01/13 07:01:15;;;;;;;1999.90;999.90;;;-1.60;99.90;;;;;;5073709;28;20029;-76
2024/01/13 07:03:41;;;;;;;1999.90;999.90;;;-1.70;99.90;;;;;;5074393;28;20055;-76
2024/01/13 07:06:07;;;;;;;1999.90;999.90;;;-1.60;99.90;;;;;;5074011;28;20453;-76
2024/01/13 07:08:32;;;;;;;1999.90;999.90;;;-1.60;99.90;;;;;;5074039;28;20021;-76
2024/01/13 07:10:58;;;;;;;1999.90;999.90;;;-1.60;99.90;;;;;;5077544;28;20028;-76
2024/01/13 07:13:24;;;;;;;1999.90;999.90;;;-1.60;99.90;;;;;;5082554;28;20413;-76
2024/01/13 07:15:49;;;;;;;1999.90;999.90;;;-1.60;99.90;;;;;;5077105;28;20039;-76
2024/01/13 07:18:15;;;;;;;1999.90;999.90;;;-1.60;99.90;;;;;;5082590;28;20052;-75
2024/01/13 07:20:41;;;;;;;1999.90;999.90;;;-1.60;99.90;;;;;;5073599;28;20082;-76
2024/01/13 07:23:06;;;;;;;1999.90;999.90;;;-1.60;99.90;;;;;;5073895;28;20032;-74
2024/01/13 07:25:33;;;;;;;1999.90;999.90;;;-1.60;99.90;;;;;;5073476;28;20025;-76
2024/01/13 07:27:59;;;;;;;1999.90;999.90;;;-1.60;99.90;;;;;;5073518;28;20029;-75
2024/01/13 07:30:25;;;;;;;1999.90;999.90;;;-1.60;99.90;;;;;;5073478;28;20143;-74
2024/01/13 07:32:51;;;;;;;1999.90;999.90;;;-1.70;99.90;;;;;;5073524;28;20569;-76
2024/01/13 07:35:17;;;;;;;1999.90;999.90;;;-1.70;99.90;;;;;;5073392;28;20021;-75
2024/01/13 07:37:43;;;;;;;1999.90;999.90;;;-1.70;99.90;;;;;;5073662;28;20028;-76
2024/01/13 07:40:09;;;;;;;1999.90;999.90;;;-1.70;99.90;;;;;;5073569;28;20097;-74
2024/01/13 07:42:38;;;;;;;1999.90;999.90;;;-1.70;99.90;;;;;;5073370;28;20024;-76
2024/01/13 07:45:05;;;;;;;1999.90;999.90;;;-1.70;99.90;;;;;;5073356;28;20032;-76
2024/01/13 07:47:30;;;;;;;1999.90;999.90;;;-1.70;99.90;;;;;;5073004;28;20111;-76
2024/01/13 07:49:56;;;;;;;1999.90;999.90;;;-1.60;99.90;;;;;;5082846;28;20107;-76
2024/01/13 07:52:21;;;;;;;1999.90;999.90;;;-1.60;99.90;;;;;;5075618;28;20533;-76
2024/01/13 07:54:47;;;;;;;1999.90;999.90;;;-1.70;99.90;;;;;;5073402;28;20028;-76
2024/01/13 07:57:14;;;;;;;1999.90;999.90;;;-1.70;99.90;;;;;;5073180;28;20032;-76
2024/01/13 07:59:39;;;;;;;1999.90;999.90;;;-1.70;99.90;;;;;;5072929;28;20099;-76
2024/01/13 08:02:05;;;;;;;1999.90;999.90;;;-1.70;99.90;;;;;;5073120;28;20067;-76
2024/01/13 08:04:31;;;;;;;1999.90;999.90;;;-1.70;99.90;;;;;;5054017;28;20575;-76
2024/01/13 08:06:56;;;;;;;1999.90;999.90;;;-1.60;99.90;;;;;;5073402;28;20072;-76
2024/01/13 08:09:22;;;;;;;1999.90;999.90;;;-1.60;99.90;;;;;;5072942;28;20032;-74
2024/01/13 08:11:48;;;;;;;1999.90;999.90;;;-1.60;99.90;;;;;;5083312;28;20063;-74
2024/01/13 08:14:16;;;;;;;1999.90;999.90;;;-1.60;99.90;;;;;;5074639;28;20056;-76
2024/01/13 08:16:42;;;;;;;1999.90;999.90;;;-1.50;99.90;;;;;;5072976;28;20021;-74
2024/01/13 08:19:10;;;;;;;1999.90;999.90;;;-1.50;99.90;;;;;;5072891;28;20067;-75
2024/01/13 08:21:36;;;;;;;1999.90;999.90;;;-1.40;99.90;;;;;;5054767;28;20017;-76
2024/01/13 08:24:01;;;;;;;1999.90;999.90;;;-1.40;99.90;;;;;;5072977;28;20093;-75
2024/01/13 08:26:30;;;;;;;1999.90;999.90;;;-1.30;99.90;;;;;;5072571;28;20494;-74
2024/01/13 08:28:56;;;;;;;1999.90;999.90;;;-1.20;99.90;;;;;;5057813;28;20486;-76
2024/01/13 08:31:22;;;;;;;1999.90;999.90;;;-1.20;99.90;;;;;;5081982;28;20483;-76
2024/01/13 08:33:47;;;;;;;1999.90;999.90;;;-1.10;99.90;;;;;;5071874;28;20137;-76
2024/01/13 08:36:13;;;;;;;1999.90;999.90;;;-1.10;99.90;;;;;;5072504;28;20020;-76
2024/01/13 08:38:39;;;;;;;1999.90;999.90;;;-1.00;99.90;;;;;;5073103;28;20033;-76
2024/01/13 08:41:04;;;;;;;1999.90;999.90;;;-0.80;99.90;;;;;;5073089;28;20020;-76
2024/01/13 08:43:30;;;;;;;1999.90;999.90;;;-0.80;99.90;;;;;;5072855;28;20024;-74
2024/01/13 08:45:56;;;;;;;1999.90;999.90;;;-0.80;99.90;;;;;;5054680;28;20422;-76
2024/01/13 08:48:22;;;;;;;1999.90;999.90;;;-0.70;99.90;;;;;;5072413;28;20549;-76
2024/01/13 08:50:48;;;;;;;1999.90;999.90;;;-0.30;99.90;;;;;;5072481;28;20024;-74
2024/01/13 08:53:13;;;;;;;1999.90;999.90;;;0.00;99.90;;;;;;5072877;28;20035;-76
2024/01/13 08:55:39;;;;;;;1999.90;999.90;;;0.20;99.90;;;;;;5054452;28;20058;-76
2024/01/13 08:58:04;;;;;;;1999.90;999.90;;;0.10;99.90;;;;;;5073006;28;20028;-76
2024/01/13 09:00:32;;;;;;;1999.90;999.90;;;0.10;99.90;;;;;;5072089;28;20021;-76
2024/01/13 09:02:58;;;;;;;1999.90;999.90;;;0.00;99.90;;;;;;5072939;28;20024;-74
2024/01/13 09:05:23;;;;;;;1999.90;999.90;;;0.10;99.90;;;;;;5072558;28;20384;-76
2024/01/13 09:07:49;;;;;;;1999.90;999.90;;;0.00;99.90;;;;;;5054424;28;20041;-76
2024/01/13 09:10:15;;;;;;;1999.90;999.90;;;0.00;99.90;;;;;;5074059;28;21348;-76
2024/01/13 09:12:41;;;;;;;1999.90;999.90;;;0.00;99.90;;;;;;5079077;28;20024;-74
2024/01/13 09:15:09;;;;;;;1999.90;999.90;;;0.00;99.90;;;;;;5092884;28;20099;-76
2024/01/13 09:17:35;;;;;;;1999.90;999.90;;;0.00;99.90;;;;;;5096306;28;20028;-76
2024/01/13 09:20:01;;;;;;;1999.90;999.90;;;0.00;99.90;;;;;;5096574;28;20065;-76
2024/01/13 09:22:26;;;;;;;1999.90;999.90;;;0.00;99.90;;;;;;5096219;28;20032;-76
2024/01/13 09:24:52;;;;;;;1999.90;999.90;;;0.00;99.90;;;;;;5095627;28;20024;-76
2024/01/13 09:27:18;;;;;;;1999.90;999.90;;;0.00;99.90;;;;;;5075981;28;20422;-74
2024/01/13 09:29:45;;;;;;;1999.90;999.90;;;0.10;99.90;;;;;;5076159;28;20017;-76
2024/01/13 09:32:14;;;;;;;1999.90;999.90;;;0.10;99.90;;;;;;5076023;28;20356;-76
2024/01/13 09:34:40;;;;;;;1999.90;999.90;;;0.10;99.90;;;;;;5076089;28;20028;-74
2024/01/13 09:37:05;;;;;;;1999.90;999.90;;;0.10;99.90;;;;;;5075605;28;20146;-76
2024/01/13 09:39:31;;;;;;;1999.90;999.90;;;0.20;99.90;;;;;;5076343;28;20024;-76
2024/01/13 09:41:59;;;;;;;1999.90;999.90;;;0.20;99.90;;;;;;5075789;28;20064;-76
2024/01/13 09:44:26;;;;;;;1999.90;999.90;;;0.30;99.90;;;;;;5075545;28;20024;-76
2024/01/13 09:46:53;;;;;;;1999.90;999.90;;;0.30;99.90;;;;;;5075707;28;20035;-76
2024/01/13 09:49:20;;;;;;;1999.90;999.90;;;0.40;99.90;;;;;;5060904;28;20020;-76
2024/01/13 09:51:46;;;;;;;1999.90;999.90;;;0.40;99.90;;;;;;5066292;28;20031;-76
2024/01/13 09:54:20;;;;;;;1999.90;999.90;;;0.60;99.90;;;;;;5075641;28;20028;-74
2024/01/13 09:56:47;;;;;;;1999.90;999.90;;;0.60;99.90;;;;;;5074417;28;20017;-76
2024/01/13 09:59:13;;;;;;;1999.90;999.90;;;0.70;99.90;;;;;;5075915;28;20024;-76
2024/01/13 10:01:39;;;;;;;1999.90;999.90;;;0.60;99.90;;;;;;5074857;28;20032;-75
2024/01/13 10:04:05;;;;;;;1999.90;999.90;;;0.80;99.90;;;;;;5075297;28;20056;-75
2024/01/13 10:06:40;;;;;;;1999.90;999.90;;;0.80;99.90;;;;;;5074270;28;20105;-76
2024/01/13 10:09:07;;;;;;;1999.90;999.90;;;1.00;99.90;;;;;;5057403;28;20074;-76
2024/01/13 10:11:33;;;;;;;1999.90;999.90;;;1.00;99.90;;;;;;5065138;28;20417;-75
2024/01/13 10:14:06;;;;;;;1999.90;999.90;;;1.00;99.90;;;;;;5079265;28;20047;-76
2024/01/13 10:16:33;;;;;;;1999.90;999.90;;;1.20;99.90;;;;;;5074328;28;20047;-76
2024/01/13 10:19:07;;;;;;;1999.90;999.90;;;1.20;99.90;;;;;;5075047;28;20025;-76
2024/01/13 10:21:33;;;;;;;1999.90;999.90;;;1.30;99.90;;;;;;5074337;28;20556;-76
2024/01/13 10:24:00;;;;;;;1999.90;999.90;;;1.30;99.90;;;;;;5075235;28;20395;-76
2024/01/13 10:26:29;;;;;;;1999.90;999.90;;;1.40;99.90;;;;;;5074495;28;20016;-76
2024/01/13 10:28:56;;;;;;;1999.90;999.90;;;1.50;99.90;;;;;;5056059;28;20031;-75
2024/01/13 10:31:23;;;;;;;1999.90;999.90;;;1.60;99.90;;;;;;5056847;28;20380;-76
2024/01/13 10:33:50;;;;;;;1999.90;999.90;;;1.70;99.90;;;;;;5074989;28;20523;-76
2024/01/13 10:36:18;;;;;;;1999.90;999.90;;;1.80;99.90;;;;;;5074541;28;20025;-75
2024/01/13 10:38:44;;;;;;;1999.90;999.90;;;2.00;99.90;;;;;;5056545;28;20506;-76
2024/01/13 10:41:10;;;;;;;1999.90;999.90;;;2.00;99.90;;;;;;5074573;28;20017;-76
2024/01/13 10:43:38;;;;;;;1999.90;999.90;;;2.00;99.90;;;;;;5074590;28;20066;-75
2024/01/13 10:46:11;;;;;;;1999.90;999.90;;;2.10;99.90;;;;;;5056753;28;20020;-76
2024/01/13 10:48:43;;;;;;;1999.90;999.90;;;2.20;99.90;;;;;;5074308;28;20052;-75
2024/01/13 10:51:35;;;;;;;1999.90;999.90;;;2.20;99.90;;;;;;5056732;28;20032;-76
2024/01/13 10:54:03;;;;;;;1999.90;999.90;;;2.20;99.90;;;;;;5074368;28;20017;-75
2024/01/13 10:56:30;;;;;;;1999.90;999.90;;;2.20;99.90;;;;;;5074436;28;20074;-75
2024/01/13 10:58:59;;;;;;;1999.90;999.90;;;2.30;99.90;;;;;;5074097;28;20384;-75
2024/01/13 11:01:26;;;;;;;1999.90;999.90;;;2.50;99.90;;;;;;5055846;28;20026;-75
2024/01/13 11:03:54;;;;;;;1999.90;999.90;;;2.70;99.90;;;;;;5074005;28;20082;-75
2024/01/13 11:06:21;;;;;;;1999.90;999.90;;;2.60;99.90;;;;;;5074079;28;20464;-75
2024/01/13 11:08:47;;;;;;;1999.90;999.90;;;2.60;99.90;;;;;;5073869;28;20024;-75
2024/01/13 11:11:19;;;;;;;1999.90;999.90;;;2.70;99.90;;;;;;5079022;28;20503;-76
2024/01/13 11:13:54;;;;;;;1999.90;999.90;;;2.80;99.90;;;;;;5062314;28;20047;-76
2024/01/13 11:16:24;;;;;;;1999.90;999.90;;;2.90;99.90;;;;;;5074095;28;20020;-75
2024/01/13 11:18:52;;;;;;;1999.90;999.90;;;2.90;99.90;;;;;;5073796;28;20027;-75
2024/01/13 11:21:19;;;;;;;1999.90;999.90;;;2.90;99.90;;;;;;5073858;28;20032;-75
2024/01/13 11:23:51;;;;;;;1999.90;999.90;;;3.20;99.90;;;;;;5073988;28;20025;-75
2024/01/13 11:26:19;;;;;;;1999.90;999.90;;;3.40;99.90;;;;;;5073402;28;20028;-75
2024/01/13 11:28:52;;;;;;;1999.90;999.90;;;3.50;99.90;;;;;;5072877;28;20033;-75
2024/01/13 11:31:40;;;;;;;1999.90;999.90;;;3.60;99.90;;;;;;5055634;28;20025;-75
2024/01/13 11:34:08;;;;;;;1999.90;999.90;;;3.90;99.90;;;;;;5055629;28;20025;-75
2024/01/13 11:36:35;;;;;;;1999.90;999.90;;;3.80;99.90;;;;;;5073495;28;20038;-75
2024/01/13 11:39:03;;;;;;;1999.90;999.90;;;3.70;99.90;;;;;;5073635;28;20031;-75
2024/01/13 11:41:57;;;;;;;1999.90;999.90;;;3.90;99.90;;;;;;5073487;28;20082;-75
2024/01/13 11:44:30;;;;;;;1999.90;999.90;;;3.70;99.90;;;;;;5073307;28;20033;-76
2024/01/13 11:47:05;;;;;;;;;;;3.90;99.90;;;;;;5055776;28;20031;-75
2024/01/13 11:49:31;;;;;;;1999.90;999.90;;;3.90;99.90;;;;;;5073222;28;20267;-75
2024/01/13 11:52:02;;;;;;;1999.90;999.90;;;3.90;99.90;;;;;;5073356;28;20092;-76
2024/01/13 11:54:29;;;;;;;1999.90;999.90;;;4.10;99.90;;;;;;5055181;28;20056;-75
2024/01/13 11:56:58;;;;;;;1999.90;999.90;;;4.20;99.90;;;;;;5073361;28;20052;-75